Time;durP1;ratioP1;P1;durP2;ratioP2;P2;SDS_P1;SDS_P2;PMS_P1;PMS_P2;Temp;Humidity;BMP_temperature;BMP_pressure;BME280_temperature;BME280_humidity;BME280_pressure;Samples;Min_cycle;Max_cycle;Signal;HPM_P1;HPM_P2
2021/12/30 00:03:37;;;;;;;6.95;1.85;;;;;;;11.10;70.77;99521.88;10409185;28;20049;-66
2021/12/30 00:08:40;;;;;;;5.57;1.80;;;;;;;11.17;70.29;99536.25;10408716;28;20512;-67
2021/12/30 00:13:45;;;;;;;4.68;1.92;;;;;;;11.23;69.95;99546.28;10409185;28;20045;-67
2021/12/30 00:18:47;;;;;;;7.72;2.00;;;;;;;11.03;69.93;99560.69;10400718;28;20076;-66
2021/12/30 00:23:50;;;;;;;7.93;3.55;;;;;;;10.96;70.01;99566.44;10392634;28;20054;-66
2021/12/30 00:28:52;;;;;;;8.75;3.05;;;;;;;10.96;69.80;99575.13;10407103;28;20093;-67
2021/12/30 00:33:53;;;;;;;7.20;2.22;;;;;;;11.01;69.72;99572.22;10407616;28;20092;-66
2021/12/30 00:38:55;;;;;;;7.95;3.10;;;;;;;11.10;69.51;99576.84;10407718;28;20049;-66
2021/12/30 00:43:57;;;;;;;9.55;2.90;;;;;;;11.06;69.02;99584.06;10407307;28;20576;-66
2021/12/30 00:48:59;;;;;;;13.57;5.47;;;;;;;10.71;69.31;99598.59;10407427;28;20132;-66
2021/12/30 00:54:00;;;;;;;11.40;4.28;;;;;;;10.55;69.80;99611.00;10406568;28;20144;-66
2021/12/30 00:59:02;;;;;;;6.75;2.95;;;;;;;10.46;69.36;99595.94;10407103;28;20405;-66
2021/12/30 01:04:05;;;;;;;10.30;3.65;;;;;;;10.34;69.37;99601.91;10414772;28;20144;-66
2021/12/30 01:09:07;;;;;;;9.55;3.03;;;;;;;10.13;69.50;99616.38;10406573;28;20124;-66
2021/12/30 01:14:17;;;;;;;11.07;2.95;;;;;;;10.19;69.24;99618.59;10405262;28;20136;-66
2021/12/30 01:24:25;;;;;;;9.80;2.97;;;;;;;10.22;68.77;99632.28;10405417;28;20482;-66
2021/12/30 01:29:29;;;;;;;11.18;3.13;;;;;;;10.24;68.85;99647.88;10405646;28;20140;-66
2021/12/30 01:34:32;;;;;;;11.63;2.53;;;;;;;10.25;68.85;99671.31;10405461;28;20050;-67
2021/12/30 01:39:38;;;;;;;11.68;2.50;;;;;;;10.22;69.00;99662.81;10405216;28;20310;-66
2021/12/30 01:44:40;;;;;;;11.55;2.50;;;;;;;10.23;68.96;99664.50;10405842;28;20045;-66
2021/12/30 01:49:42;;;;;;;12.27;2.80;;;;;;;10.17;68.77;99678.78;10405165;28;20405;-66
2021/12/30 01:54:44;;;;;;;12.80;2.53;;;;;;;10.20;68.39;99675.97;10405024;28;20123;-67
2021/12/30 01:59:45;;;;;;;13.35;2.72;;;;;;;10.22;68.25;99668.03;10430247;28;20045;-66
2021/12/30 02:04:48;;;;;;;13.32;2.72;;;;;;;10.31;67.93;99677.94;10408467;28;20045;-66
2021/12/30 02:09:50;;;;;;;13.70;2.88;;;;;;;10.29;67.94;99682.41;10403794;28;20081;-67
2021/12/30 02:14:52;;;;;;;16.00;3.33;;;;;;;10.13;68.05;99668.63;10404308;28;20128;-66
2021/12/30 02:20:03;;;;;;;12.40;2.70;;;;;;;9.90;68.16;99680.47;10404299;28;20704;-66
2021/12/30 02:25:05;;;;;;;13.60;3.35;;;;;;;9.73;68.41;99698.94;10403609;28;20041;-66
2021/12/30 02:30:08;;;;;;;17.27;3.22;;;;;;;9.73;68.47;99700.72;10403261;28;20061;-66
2021/12/30 02:35:09;;;;;;;12.32;3.05;;;;;;;9.63;68.96;99701.22;10404033;28;20116;-66
2021/12/30 02:40:11;;;;;;;13.80;3.15;;;;;;;9.56;69.13;99718.16;10403485;28;20050;-66
2021/12/30 02:45:13;;;;;;;11.93;3.05;;;;;;;9.74;69.02;99721.50;10402710;28;20476;-66
2021/12/30 02:50:15;;;;;;;9.65;2.80;;;;;;;9.91;68.82;99717.91;10402444;28;20054;-66
2021/12/30 02:55:17;;;;;;;12.52;3.10;;;;;;;10.01;68.67;99711.19;10402756;28;20635;-66
2021/12/30 03:00:19;;;;;;;17.35;3.72;;;;;;;10.05;68.58;99703.06;10402322;28;20053;-66
2021/12/30 03:05:21;;;;;;;15.85;2.85;;;;;;;10.07;68.43;99701.19;10414887;28;20045;-66
2021/12/30 03:10:25;;;;;;;13.57;3.20;;;;;;;10.12;68.32;99703.50;10410416;28;20056;-66
2021/12/30 03:15:27;;;;;;;13.93;2.95;;;;;;;10.14;68.38;99714.72;10410986;28;20041;-66
2021/12/30 03:20:36;;;;;;;10.98;2.45;;;;;;;10.18;68.13;99716.19;10410142;28;20129;-66
2021/12/30 03:25:38;;;;;;;13.63;2.88;;;;;;;10.26;68.27;99713.94;10390719;28;20121;-66
2021/12/30 03:30:40;;;;;;;10.63;2.42;;;;;;;10.33;67.98;99717.88;10409070;28;20060;-66
2021/12/30 03:35:42;;;;;;;11.85;2.45;;;;;;;10.29;68.34;99722.47;10410180;28;20399;-66
2021/12/30 03:40:44;;;;;;;12.15;2.60;;;;;;;10.27;68.63;99728.72;10406421;28;20140;-66
2021/12/30 03:45:45;;;;;;;10.00;2.67;;;;;;;10.31;68.76;99724.97;10409800;28;20042;-66
2021/12/30 03:50:48;;;;;;;14.38;3.20;;;;;;;10.28;68.96;99719.91;10409751;28;20080;-66
2021/12/30 03:55:51;;;;;;;14.50;3.13;;;;;;;10.35;69.11;99729.06;10399812;28;20054;-66
2021/12/30 04:00:53;;;;;;;11.60;2.67;;;;;;;10.31;69.61;99727.59;10403601;28;20132;-67
2021/12/30 04:05:55;;;;;;;19.08;3.13;;;;;;;10.24;69.84;99715.81;10411140;28;20087;-66
2021/12/30 04:10:57;;;;;;;14.45;2.97;;;;;;;10.28;70.33;99730.38;10409425;28;20140;-66
2021/12/30 04:16:00;;;;;;;15.27;3.08;;;;;;;10.33;70.21;99751.84;10404220;28;20046;-66
2021/12/30 04:21:02;;;;;;;14.63;3.10;;;;;;;10.34;70.31;99756.97;10408864;28;20638;-66
2021/12/30 04:26:03;;;;;;;18.42;3.45;;;;;;;10.29;70.64;99758.22;10409829;28;20065;-67
2021/12/30 04:31:06;;;;;;;17.50;3.25;;;;;;;10.22;70.88;99754.28;10409324;28;20056;-67
2021/12/30 04:36:08;;;;;;;18.50;3.53;;;;;;;10.20;71.09;99756.16;10408087;28;20053;-66
2021/12/30 04:41:10;;;;;;;20.77;3.45;;;;;;;10.32;71.04;99763.22;10409290;28;20140;-66
2021/12/30 04:46:13;;;;;;;17.35;3.72;;;;;;;10.35;71.08;99763.06;10384412;28;20512;-66
2021/12/30 04:51:16;;;;;;;20.38;3.80;;;;;;;10.35;71.22;99739.53;10408431;28;20064;-66
2021/12/30 04:56:18;;;;;;;20.33;4.22;;;;;;;10.43;71.31;99747.75;10404360;28;20057;-66
2021/12/30 05:01:20;;;;;;;17.67;3.55;;;;;;;10.52;71.08;99750.63;10404338;28;20497;-66
2021/12/30 05:06:22;;;;;;;24.77;4.10;;;;;;;10.60;71.02;99758.00;10407021;28;20049;-66
2021/12/30 05:11:24;;;;;;;19.15;3.63;;;;;;;10.67;71.13;99746.22;10405501;28;20395;-66
2021/12/30 05:16:25;;;;;;;23.98;4.20;;;;;;;10.76;70.87;99750.88;10403433;28;20176;-67
2021/12/30 05:21:27;;;;;;;18.38;4.03;;;;;;;10.84;70.95;99745.16;10407599;28;20045;-67
2021/12/30 05:26:29;;;;;;;28.55;4.90;;;;;;;10.88;70.82;99744.84;10407294;28;20509;-67
2021/12/30 05:31:31;;;;;;;35.90;6.40;;;;;;;10.85;70.77;99752.88;10406240;28;20069;-66
2021/12/30 05:36:32;;;;;;;29.30;7.63;;;;;;;10.70;70.92;99753.88;10406254;28;20099;-66
2021/12/30 05:41:34;;;;;;;33.17;7.72;;;;;;;10.70;71.04;99764.34;10412540;28;20482;-67
2021/12/30 05:46:36;;;;;;;24.50;5.68;;;;;;;10.62;71.33;99761.38;10406653;28;20080;-67
2021/12/30 05:51:38;;;;;;;22.75;7.55;;;;;;;10.59;71.40;99764.16;10406314;28;20140;-67
2021/12/30 05:56:39;;;;;;;30.67;7.78;;;;;;;10.67;70.88;99774.13;10405050;28;20075;-67
2021/12/30 06:01:41;;;;;;;114.65;10.15;;;;;;;10.70;70.89;99781.81;10420571;28;20049;-67
2021/12/30 06:06:43;;;;;;;20.73;7.72;;;;;;;10.65;70.94;99787.31;10404762;28;20485;-67
2021/12/30 06:11:45;;;;;;;23.08;5.47;;;;;;;10.57;71.28;99786.09;10429961;28;20645;-67
2021/12/30 06:16:46;;;;;;;15.40;4.20;;;;;;;10.50;71.71;99794.31;10405511;28;20049;-67
2021/12/30 06:21:48;;;;;;;15.05;6.18;;;;;;;10.46;72.20;99802.47;10404972;28;20136;-66
2021/12/30 06:26:50;;;;;;;7.55;2.90;;;;;;;10.44;73.10;99804.31;10403029;28;20075;-67
2021/12/30 06:31:51;;;;;;;6.50;2.38;;;;;;;10.54;73.60;99789.78;10404598;28;20088;-67
2021/12/30 06:36:53;;;;;;;7.40;2.65;;;;;;;10.74;73.47;99798.97;10402610;28;20170;-67
2021/12/30 06:41:55;;;;;;;5.90;2.10;;;;;;;10.79;73.78;99795.13;10404291;28;20107;-67
2021/12/30 06:46:59;;;;;;;6.03;3.10;;;;;;;10.92;74.24;99801.28;10403519;28;20120;-67
2021/12/30 06:52:05;;;;;;;4.85;1.60;;;;;;;11.08;74.15;99803.78;10403437;28;20060;-67
2021/12/30 06:57:10;;;;;;;4.60;1.70;;;;;;;11.23;73.83;99801.03;10403378;28;20128;-67
2021/12/30 07:02:13;;;;;;;3.92;1.50;;;;;;;11.21;74.27;99802.09;10403376;28;20427;-67
2021/12/30 07:07:15;;;;;;;6.25;1.85;;;;;;;11.30;74.26;99815.41;10412879;28;20053;-67
2021/12/30 07:12:17;;;;;;;2.80;1.30;;;;;;;11.40;74.26;99815.66;10403369;28;20065;-67
2021/12/30 07:17:18;;;;;;;3.03;1.30;;;;;;;11.48;74.17;99826.47;10420354;28;20076;-68
2021/12/30 07:22:20;;;;;;;3.00;1.10;;;;;;;11.52;74.28;99821.88;10402099;28;20121;-67
2021/12/30 07:27:43;;;;;;;2.55;1.10;;;;;;;11.68;73.89;99835.66;10403341;28;20065;-67
2021/12/30 07:32:46;;;;;;;3.20;1.10;;;;;;;11.76;73.97;99838.63;10403125;28;20059;-67
2021/12/30 07:37:49;;;;;;;1.50;0.90;;;;;;;11.87;73.61;99843.97;10409197;28;20084;-67
2021/12/30 07:42:51;;;;;;;3.55;1.20;;;;;;;12.04;73.31;99851.56;10411294;28;20524;-67
2021/12/30 07:47:53;;;;;;;1.35;1.00;;;;;;;12.06;73.35;99854.91;10409348;28;20077;-67
2021/12/30 07:52:55;;;;;;;0.85;0.80;;;;;;;12.12;73.21;99850.09;10409823;28;20453;-67
2021/12/30 07:57:58;;;;;;;11.82;7.15;;;;;;;12.05;73.22;99856.69;10437224;28;20124;-67
2021/12/30 08:02:59;;;;;;;1.55;1.10;;;;;;;12.11;73.10;99847.56;10425808;28;20073;-67
2021/12/30 08:08:01;;;;;;;1.65;0.80;;;;;;;12.05;73.44;99846.19;10409483;28;20149;-67
2021/12/30 08:13:03;;;;;;;1.05;0.95;;;;;;;12.21;73.03;99861.75;10409661;28;20172;-67
2021/12/30 08:18:05;;;;;;;7.68;5.28;;;;;;;12.34;72.87;99867.88;10419396;28;20497;-67
2021/12/30 08:23:07;;;;;;;18.80;13.35;;;;;;;12.46;72.52;99859.16;10421130;28;20148;-67
2021/12/30 08:28:08;;;;;;;3.08;1.70;;;;;;;12.49;72.25;99872.09;10409356;28;20113;-67
2021/12/30 08:33:11;;;;;;;1.23;1.10;;;;;;;12.64;72.24;99872.81;10408505;28;20065;-68
2021/12/30 08:38:13;;;;;;;2.80;1.00;;;;;;;12.72;71.85;99887.06;10408661;28;20084;-67
2021/12/30 08:43:16;;;;;;;2.33;1.77;;;;;;;12.68;71.91;99888.22;10408724;28;20148;-67
2021/12/30 08:48:19;;;;;;;2.05;1.42;;;;;;;12.76;71.59;99899.03;10405777;28;20140;-68
2021/12/30 08:53:23;;;;;;;1.33;1.20;;;;;;;12.80;71.41;99905.75;10408269;28;20049;-67
2021/12/30 08:58:24;;;;;;;2.85;1.00;;;;;;;12.82;71.61;99919.59;10407044;28;20049;-67
2021/12/30 09:03:26;;;;;;;0.80;0.80;;;;;;;12.83;71.57;99916.03;10404442;28;20682;-67
2021/12/30 09:08:28;;;;;;;0.70;0.70;;;;;;;12.98;71.20;99927.25;10406531;28;20053;-67
2021/12/30 09:13:29;;;;;;;1.23;0.73;;;;;;;13.21;71.08;99939.59;10407480;28;20057;-67
2021/12/30 09:18:31;;;;;;;1.63;0.80;;;;;;;13.32;70.81;99939.69;10403469;28;20167;-67
2021/12/30 09:23:33;;;;;;;2.50;0.80;;;;;;;13.41;70.35;99938.22;10407332;28;20049;-67
2021/12/30 09:28:34;;;;;;;2.35;0.75;;;;;;;13.51;69.93;99952.41;10405147;28;20137;-67
2021/12/30 09:33:36;;;;;;;1.50;0.60;;;;;;;13.46;70.34;99963.22;10399834;28;20056;-73
2021/12/30 09:38:38;;;;;;;0.98;0.50;;;;;;;13.69;69.83;99967.69;10407225;28;20072;-74
2021/12/30 09:43:40;;;;;;;1.10;0.50;;;;;;;13.76;69.65;99971.53;10391298;28;20049;-75
2021/12/30 09:48:41;;;;;;;0.57;0.57;;;;;;;13.99;69.15;99972.50;10404166;28;20136;-74
2021/12/30 09:53:43;;;;;;;0.63;0.50;;;;;;;14.01;69.00;99980.28;10402058;28;20408;-75
2021/12/30 09:58:46;;;;;;;1.38;0.60;;;;;;;13.78;69.55;99993.31;10403515;28;20048;-75
2021/12/30 10:03:49;;;;;;;0.50;0.50;;;;;;;13.76;69.44;99986.47;10404053;28;20121;-74
2021/12/30 10:08:56;;;;;;;1.25;0.60;;;;;;;13.88;68.73;99987.41;10403436;28;20146;-75
2021/12/30 10:14:00;;;;;;;2.38;0.60;;;;;;;13.74;68.90;99998.88;10403065;28;20072;-75
2021/12/30 10:19:07;;;;;;;0.80;0.70;;;;;;;13.64;69.44;99995.22;10403227;28;20061;-75
2021/12/30 10:24:12;;;;;;;0.65;0.65;;;;;;;13.77;69.22;99982.91;10403035;28;20058;-74
2021/12/30 10:29:14;;;;;;;1.95;0.80;;;;;;;13.85;68.99;99996.34;10403181;28;20053;-75
2021/12/30 10:34:17;;;;;;;0.68;0.43;;;;;;;13.92;68.85;99992.34;10401674;28;20055;-74
2021/12/30 10:39:27;;;;;;;1.27;0.80;;;;;;;13.83;68.51;100002.66;10400956;28;20045;-74
2021/12/30 10:44:55;;;;;;;1.05;0.70;;;;;;;13.85;68.21;99993.72;10399866;28;20053;-75
2021/12/30 10:50:03;;;;;;;0.43;0.43;;;;;;;14.02;68.43;99988.09;10400784;28;20060;-74
2021/12/30 10:55:13;;;;;;;2.80;0.90;;;;;;;14.19;67.79;100000.81;10392283;28;20060;-75
2021/12/30 11:00:26;;;;;;;0.73;0.60;;;;;;;14.32;66.48;100001.59;10400428;28;20133;-76
2021/12/30 11:05:28;;;;;;;1.58;0.70;;;;;;;14.32;67.03;99996.34;10401398;28;20076;-75
2021/12/30 11:10:33;;;;;;;0.30;0.30;;;;;;;14.37;66.95;99982.84;10401906;28;20049;-76
2021/12/30 11:15:34;;;;;;;0.60;0.50;;;;;;;14.24;66.82;99977.66;10400844;28;20784;-75
2021/12/30 11:20:46;;;;;;;1.50;0.60;;;;;;;14.28;66.43;99976.47;10406316;28;20135;-74
2021/12/30 11:25:47;;;;;;;0.68;0.50;;;;;;;14.30;66.83;99971.09;10403919;28;20073;-75
2021/12/30 11:30:49;;;;;;;2.80;0.80;;;;;;;14.43;66.41;99977.13;10403944;28;20049;-74
2021/12/30 11:35:51;;;;;;;0.88;0.70;;;;;;;14.42;66.16;99964.91;10405566;28;20049;-75
2021/12/30 11:40:54;;;;;;;1.05;0.65;;;;;;;14.43;66.22;99963.97;10405090;28;20128;-75
2021/12/30 11:45:56;;;;;;;3.13;0.70;;;;;;;14.50;65.92;99975.72;10405428;28;20132;-75
2021/12/30 11:51:18;;;;;;;1.75;0.60;;;;;;;14.41;65.35;99984.31;10408462;28;20059;-75
2021/12/30 11:56:22;;;;;;;0.60;0.55;;;;;;;14.53;65.66;99986.03;10415804;28;20140;-75
2021/12/30 12:01:29;;;;;;;1.77;0.65;;;;;;;14.23;67.65;99990.91;10436084;28;20061;-74
2021/12/30 12:06:45;;;;;;;0.80;0.73;;;;;;;13.86;69.17;99999.81;10391325;28;20049;-75
2021/12/30 12:11:56;;;;;;;0.93;0.93;;;;;;;13.57;71.05;100001.91;10401115;28;20171;-75
2021/12/30 12:17:18;;;;;;;0.88;0.85;;;;;;;13.54;70.92;100000.31;10395092;28;20053;-74
2021/12/30 12:22:25;;;;;;;0.68;0.68;;;;;;;13.39;71.42;99992.66;10427629;28;20041;-74
2021/12/30 12:27:37;;;;;;;2.20;0.90;;;;;;;13.43;71.61;99981.00;10406357;28;20056;-75
2021/12/30 12:32:39;;;;;;;2.03;0.93;;;;;;;13.44;71.32;99980.03;10405503;28;20056;-75
2021/12/30 12:37:41;;;;;;;1.02;0.90;;;;;;;13.65;70.63;99975.91;10408711;28;20152;-75
2021/12/30 12:42:42;;;;;;;1.00;0.90;;;;;;;13.88;70.24;99975.06;10406621;28;20401;-75
2021/12/30 12:47:45;;;;;;;1.67;0.90;;;;;;;14.04;69.58;99982.69;10409398;28;20660;-75
2021/12/30 12:52:47;;;;;;;1.70;0.95;;;;;;;14.13;68.71;99982.84;10404567;28;20128;-74
2021/12/30 12:57:49;;;;;;;1.17;0.88;;;;;;;14.33;68.30;99970.88;10403781;28;20547;-75
2021/12/30 13:02:52;;;;;;;0.82;0.77;;;;;;;14.33;67.76;99970.88;10407736;28;20128;-75
2021/12/30 13:07:55;;;;;;;0.90;0.90;;;;;;;14.41;67.77;99964.06;10407390;28;20095;-76
2021/12/30 13:13:00;;;;;;;0.73;0.73;;;;;;;14.43;67.55;99961.34;10407235;28;20133;-75
2021/12/30 13:18:12;;;;;;;0.80;0.70;;;;;;;14.26;67.27;99970.50;10407017;28;20041;-75
2021/12/30 13:23:32;;;;;;;1.77;0.90;;;;;;;14.21;66.45;99958.59;10405156;28;20042;-75
2021/12/30 13:28:48;;;;;;;3.50;1.03;;;;;;;14.02;66.37;99966.19;10407499;28;20108;-75
2021/12/30 13:33:58;;;;;;;1.90;1.08;;;;;;;13.89;67.36;99981.19;10406289;28;20148;-75
2021/12/30 13:39:14;;;;;;;3.33;1.30;;;;;;;13.44;69.28;99985.31;10392432;28;20041;-75
2021/12/30 13:44:16;;;;;;;1.95;1.27;;;;;;;13.35;70.07;99986.75;10406620;28;20128;-75
2021/12/30 13:49:18;;;;;;;1.35;1.10;;;;;;;13.30;70.16;100003.78;10406376;28;20049;-74
2021/12/30 13:54:20;;;;;;;1.55;1.08;;;;;;;13.23;71.13;100008.63;10405972;28;20081;-74
2021/12/30 13:59:29;;;;;;;2.53;1.33;;;;;;;13.32;70.79;100023.75;10405437;28;20136;-75
2021/12/30 14:04:39;;;;;;;2.70;1.30;;;;;;;13.41;70.35;100028.34;10406072;28;20554;-75
2021/12/30 14:09:53;;;;;;;2.65;1.20;;;;;;;13.42;70.39;100024.81;10397536;28;20088;-75
2021/12/30 14:14:54;;;;;;;1.83;1.15;;;;;;;13.48;70.29;100036.69;10405181;28;20048;-75
2021/12/30 14:19:56;;;;;;;1.42;1.00;;;;;;;13.41;70.30;100033.59;10402788;28;20141;-74
2021/12/30 14:24:57;;;;;;;2.58;1.23;;;;;;;13.57;69.63;100038.69;10420464;28;20038;-75
2021/12/30 14:30:12;;;;;;;2.65;1.05;;;;;;;13.59;69.51;100037.63;10403846;28;20494;-75
2021/12/30 14:35:15;;;;;;;3.88;1.30;;;;;;;13.49;69.88;100041.84;10425879;28;20128;-75
2021/12/30 14:40:18;;;;;;;3.75;1.30;;;;;;;13.50;69.68;100045.28;10401262;28;20409;-75
2021/12/30 14:45:20;;;;;;;2.95;1.10;;;;;;;13.42;70.05;100061.59;10402512;28;20128;-76
2021/12/30 14:50:26;;;;;;;3.45;1.58;;;;;;;13.37;70.09;100068.91;10402424;28;20049;-76
2021/12/30 14:55:31;;;;;;;2.30;1.40;;;;;;;13.38;70.26;100078.50;10404535;28;20055;-76
2021/12/30 15:00:37;;;;;;;2.20;1.38;;;;;;;13.38;70.69;100089.00;10405160;28;20461;-75
2021/12/30 15:05:39;;;;;;;3.63;1.40;;;;;;;13.27;70.88;100101.19;10404537;28;20045;-75
2021/12/30 15:10:41;;;;;;;4.00;1.40;;;;;;;13.11;71.24;100087.44;10404678;28;20053;-75
2021/12/30 15:15:42;;;;;;;3.10;1.45;;;;;;;13.05;71.66;100108.84;10404173;28;20050;-76
2021/12/30 15:20:44;;;;;;;1.70;1.23;;;;;;;13.05;71.72;100119.34;10403791;28;20045;-74
2021/12/30 15:25:47;;;;;;;2.67;1.30;;;;;;;12.86;72.49;100117.09;10404237;28;20133;-75
2021/12/30 15:30:49;;;;;;;8.30;5.93;;;;;;;12.87;72.09;100106.50;10403891;28;20061;-75
2021/12/30 15:35:52;;;;;;;3.33;1.50;;;;;;;12.85;72.25;100123.28;10404108;28;20049;-75
2021/12/30 15:40:54;;;;;;;3.70;1.30;;;;;;;12.80;72.26;100123.56;10402370;28;20137;-75
2021/12/30 15:45:56;;;;;;;4.10;1.30;;;;;;;12.84;72.15;100125.06;10404582;28;20053;-74
2021/12/30 15:50:58;;;;;;;2.38;1.48;;;;;;;12.87;72.06;100132.75;10403483;28;20490;-74
2021/12/30 15:56:00;;;;;;;5.10;1.30;;;;;;;12.88;72.03;100144.91;10405293;28;20048;-75
2021/12/30 16:01:03;;;;;;;3.33;1.40;;;;;;;12.84;71.98;100137.38;10411134;28;20053;-75
2021/12/30 16:06:05;;;;;;;9.45;5.10;;;;;;;12.80;71.85;100143.75;10411304;28;20057;-75
2021/12/30 16:11:07;;;;;;;4.25;1.48;;;;;;;12.80;71.85;100155.06;10411073;28;20041;-74
2021/12/30 16:16:08;;;;;;;3.55;1.80;;;;;;;12.75;71.79;100153.69;10406970;28;20520;-75
2021/12/30 16:21:10;;;;;;;2.17;1.13;;;;;;;12.70;71.88;100150.53;10409697;28;20146;-74
2021/12/30 16:26:12;;;;;;;3.17;1.10;;;;;;;12.78;71.48;100149.06;10408928;28;20141;-67
2021/12/30 16:31:14;;;;;;;5.03;1.40;;;;;;;12.82;71.33;100152.38;10397644;28;20056;-67
2021/12/30 16:36:16;;;;;;;2.88;1.30;;;;;;;12.77;71.36;100147.41;10408905;28;20460;-67
2021/12/30 16:41:17;;;;;;;3.63;1.30;;;;;;;12.79;71.06;100156.03;10409157;28;20088;-67
2021/12/30 16:46:22;;;;;;;3.95;1.50;;;;;;;12.76;71.14;100166.72;10408034;28;20088;-67
2021/12/30 16:51:25;;;;;;;2.70;1.30;;;;;;;12.72;71.13;100162.59;10396198;28;20057;-67
2021/12/30 16:56:27;;;;;;;2.53;1.40;;;;;;;12.69;71.08;100168.06;10407763;28;20172;-67
2021/12/30 17:01:28;;;;;;;2.33;1.30;;;;;;;12.57;71.27;100178.50;10407528;28;20051;-67
2021/12/30 17:06:32;;;;;;;3.67;1.40;;;;;;;12.59;71.12;100174.84;10407168;28;20057;-67
2021/12/30 17:11:33;;;;;;;3.30;1.30;;;;;;;12.60;70.96;100181.75;10407623;28;20049;-67
2021/12/30 17:16:35;;;;;;;5.18;2.05;;;;;;;12.65;70.82;100195.44;10406610;28;20049;-67
2021/12/30 17:21:37;;;;;;;3.25;1.38;;;;;;;12.64;70.52;100192.94;10403586;28;20404;-66
2021/12/30 17:26:40;;;;;;;3.60;1.67;;;;;;;12.64;70.40;100199.00;10404871;28;20149;-66
2021/12/30 17:31:41;;;;;;;3.78;1.40;;;;;;;12.65;70.27;100194.59;10402420;28;20053;-66
2021/12/30 17:36:43;;;;;;;3.95;1.50;;;;;;;12.65;70.44;100207.72;10400132;28;20080;-67
2021/12/30 17:41:45;;;;;;;4.95;1.60;;;;;;;12.74;69.90;100209.75;10404341;28;20045;-67
2021/12/30 17:46:47;;;;;;;4.70;1.40;;;;;;;12.64;70.25;100213.91;10404511;28;20100;-67
2021/12/30 17:51:49;;;;;;;3.75;1.40;;;;;;;12.64;70.25;100222.59;10402969;28;20140;-67
2021/12/30 17:56:51;;;;;;;3.85;1.40;;;;;;;12.58;70.24;100223.00;10407332;28;20069;-67
2021/12/30 18:01:54;;;;;;;4.38;1.60;;;;;;;12.56;70.21;100227.50;10403319;28;20049;-67
2021/12/30 18:06:56;;;;;;;5.10;1.75;;;;;;;12.55;70.15;100230.22;10402799;28;20510;-66
2021/12/30 18:11:58;;;;;;;3.75;1.60;;;;;;;12.53;70.13;100235.56;10402730;28;20085;-67
2021/12/30 18:17:02;;;;;;;4.20;1.60;;;;;;;12.63;70.15;100228.81;10402125;28;20053;-67
2021/12/30 18:22:05;;;;;;;6.30;1.65;;;;;;;12.65;70.05;100231.31;10404062;28;20514;-67
2021/12/30 18:27:07;;;;;;;3.70;1.52;;;;;;;12.66;69.79;100241.72;10404220;28;20092;-67
2021/12/30 18:32:09;;;;;;;5.25;1.55;;;;;;;12.65;70.11;100247.06;10403262;28;20487;-67
2021/12/30 18:37:11;;;;;;;5.30;1.60;;;;;;;12.57;70.26;100251.97;10402572;28;20060;-66
2021/12/30 18:42:14;;;;;;;4.88;1.90;;;;;;;12.57;70.10;100254.59;10412393;28;20576;-67
2021/12/30 18:47:16;;;;;;;5.68;2.08;;;;;;;12.52;70.21;100256.63;10397693;28;20136;-66
2021/12/30 18:52:18;;;;;;;4.60;1.70;;;;;;;12.55;70.42;100257.31;10400980;28;20053;-66
2021/12/30 18:57:20;;;;;;;5.18;1.75;;;;;;;12.44;70.43;100256.28;10405210;28;20049;-67
2021/12/30 19:02:21;;;;;;;5.32;1.85;;;;;;;12.37;70.67;100247.13;10401872;28;20562;-66
2021/12/30 19:07:29;;;;;;;5.93;2.00;;;;;;;12.35;70.70;100243.75;10401402;28;20149;-67
2021/12/30 19:12:32;;;;;;;6.13;2.20;;;;;;;12.37;70.64;100247.13;10403878;28;20053;-67
2021/12/30 19:17:34;;;;;;;4.50;2.00;;;;;;;12.38;70.42;100248.78;10403457;28;20045;-66
2021/12/30 19:22:36;;;;;;;5.75;2.10;;;;;;;12.33;70.70;100253.50;10403583;28;20108;-67
2021/12/30 19:27:38;;;;;;;5.40;1.98;;;;;;;12.23;70.48;100247.09;10402589;28;20085;-67
2021/12/30 19:32:40;;;;;;;5.82;2.03;;;;;;;12.36;70.45;100250.66;10407832;28;20132;-67
2021/12/30 19:37:45;;;;;;;5.85;1.83;;;;;;;12.31;70.49;100248.34;10429720;28;20049;-67
2021/12/30 19:42:47;;;;;;;9.82;2.08;;;;;;;12.44;70.08;100261.53;10411141;28;20073;-66
2021/12/30 19:47:49;;;;;;;6.55;1.98;;;;;;;12.48;69.70;100269.13;10409954;28;20498;-66
2021/12/30 19:52:51;;;;;;;7.22;1.90;;;;;;;12.49;69.50;100281.31;10409868;28;20649;-67
2021/12/30 19:57:53;;;;;;;7.85;2.03;;;;;;;12.50;69.62;100277.72;10410334;28;20472;-67
2021/12/30 20:02:58;;;;;;;6.82;2.30;;;;;;;12.55;69.37;100277.44;10407942;28;20128;-67
2021/12/30 20:08:01;;;;;;;6.40;2.10;;;;;;;12.57;69.33;100265.94;10410607;28;20523;-67
2021/12/30 20:13:04;;;;;;;4.07;1.60;;;;;;;12.66;69.28;100270.59;10410174;28;20073;-67
2021/12/30 20:18:06;;;;;;;6.22;1.98;;;;;;;12.70;68.97;100272.06;10408538;28;20077;-67
2021/12/30 20:23:08;;;;;;;6.70;1.80;;;;;;;12.69;69.07;100267.78;10410063;28;20095;-67
2021/12/30 20:28:11;;;;;;;4.90;1.67;;;;;;;12.65;69.09;100289.06;10408178;28;20136;-66
2021/12/30 20:33:14;;;;;;;5.65;1.65;;;;;;;12.60;69.39;100284.09;10409193;28;20144;-67
2021/12/30 20:38:16;;;;;;;6.47;1.90;;;;;;;12.63;69.04;100296.19;10406385;28;20049;-67
2021/12/30 20:43:19;;;;;;;4.78;1.75;;;;;;;12.68;68.85;100299.38;10408664;28;21388;-66
2021/12/30 20:48:24;;;;;;;5.32;1.90;;;;;;;12.63;68.95;100289.16;10398612;28;20095;-67
2021/12/30 20:53:26;;;;;;;4.32;1.52;;;;;;;12.64;69.14;100293.47;10409152;28;20037;-67
2021/12/30 20:58:28;;;;;;;4.35;1.40;;;;;;;12.61;69.12;100298.91;10418683;28;20135;-67
2021/12/30 21:03:31;;;;;;;3.83;1.40;;;;;;;12.71;68.93;100300.03;10419790;28;21796;-67
2021/12/30 21:08:33;;;;;;;3.63;1.35;;;;;;;12.68;68.90;100300.19;10407652;28;20140;-67
2021/12/30 21:13:38;;;;;;;3.35;1.33;;;;;;;12.66;68.98;100299.44;10407724;28;20723;-67
2021/12/30 21:18:41;;;;;;;5.35;1.50;;;;;;;12.67;68.87;100314.28;10406924;28;20084;-67
2021/12/30 21:23:42;;;;;;;3.05;1.30;;;;;;;12.67;68.93;100314.28;10403837;28;20047;-66
2021/12/30 21:28:46;;;;;;;4.20;1.35;;;;;;;12.72;69.01;100306.13;10407063;28;20061;-66
2021/12/30 21:33:50;;;;;;;3.80;1.58;;;;;;;12.65;69.14;100317.91;10408674;28;20038;-66
2021/12/30 21:38:52;;;;;;;3.50;1.35;;;;;;;12.55;69.28;100324.69;10405681;28;20051;-66
2021/12/30 21:43:54;;;;;;;4.47;1.60;;;;;;;12.55;69.71;100340.41;10408241;28;20042;-66
2021/12/30 21:48:56;;;;;;;4.35;1.30;;;;;;;12.54;69.70;100333.47;10402440;28;20133;-66
2021/12/30 21:54:00;;;;;;;6.13;1.83;;;;;;;12.50;70.01;100337.22;10412295;28;20152;-66
2021/12/30 21:59:02;;;;;;;6.70;1.70;;;;;;;12.36;70.40;100353.81;10411798;28;20452;-67
2021/12/30 22:04:04;;;;;;;4.97;1.90;;;;;;;12.38;70.66;100354.56;10422498;28;20050;-66
2021/12/30 22:09:06;;;;;;;6.68;1.90;;;;;;;12.39;70.70;100350.16;10416975;28;20136;-66
2021/12/30 22:14:08;;;;;;;6.15;1.98;;;;;;;12.41;70.46;100354.38;10407833;28;20048;-66
2021/12/30 22:19:09;;;;;;;7.03;1.95;;;;;;;12.45;70.22;100358.50;10415570;28;20473;-66
2021/12/30 22:24:12;;;;;;;7.32;2.17;;;;;;;12.42;70.51;100361.31;10416224;28;20132;-66
2021/12/30 22:29:13;;;;;;;6.95;2.13;;;;;;;12.39;70.37;100361.50;10409915;28;20065;-66
2021/12/30 22:34:15;;;;;;;9.07;2.65;;;;;;;12.49;69.97;100341.66;10422954;28;20143;-66
2021/12/30 22:39:19;;;;;;;7.60;2.30;;;;;;;12.56;69.44;100345.56;10416746;28;20044;-66
2021/12/30 22:44:21;;;;;;;6.30;2.38;;;;;;;12.49;69.57;100357.38;10412504;28;20530;-66
2021/12/30 22:49:23;;;;;;;6.22;1.92;;;;;;;12.49;69.66;100365.25;10414459;28;20107;-66
2021/12/30 22:54:26;;;;;;;8.48;2.40;;;;;;;12.45;69.67;100361.13;10414571;28;20445;-66
2021/12/30 22:59:29;;;;;;;7.07;2.50;;;;;;;12.50;69.93;100363.47;10408745;28;20148;-66
2021/12/30 23:04:31;;;;;;;10.40;2.53;;;;;;;12.50;70.08;100364.31;10412762;28;20052;-66
2021/12/30 23:09:32;;;;;;;10.00;2.83;;;;;;;12.53;70.02;100358.03;10412166;28;20649;-66
2021/12/30 23:14:35;;;;;;;8.23;2.72;;;;;;;12.50;69.67;100366.94;10410942;28;20072;-66
2021/12/30 23:19:37;;;;;;;8.00;2.72;;;;;;;12.31;70.00;100366.38;10413112;28;20052;-66
2021/12/30 23:24:38;;;;;;;8.30;3.05;;;;;;;12.31;70.38;100369.00;10415432;28;20056;-66